Weather observations for the past three days for
Dickson Municipal Airport
Imperial (Metric)
Date Time (cdt) Wind (mph) Vis. (mi.) Weather Sky Cond. Temperature (ºF) Relative Humidity Wind Chill (°F) Heat Index (°F) Pressure Precipitation (in)
Air Dwpt 6 hour altimeter (in) sea level (mb) 1 hr 3 hr 6 hr
Max. Min.
06 07:35 NE 6 4.00 Fog/Mist NULL 50 50 100% 48 29.87 0.0
06 07:15 Vrbl 5 3.00 Fog/Mist NULL 50 50 100% 49 29.88 0.0
06 06:55 Calm 8.00 NULL NULL 50 50 100% 29.86 0.0
06 06:35 N 10 7.00 NULL NULL 50 50 100% 46 29.85 0.0
06 06:15 N 8 G 14 10.00 NULL NULL 51.8 50 94% 29.83 0.0
06 05:55 N 9 10.00 NULL NULL 51.8 50 94% 29.82 0.0
06 05:35 NE 5 10.00 NULL NULL 51.8 50 94% 29.81 0.0
06 05:15 NE 6 10.00 NULL NULL 51.8 50 94% 29.82 0.0
06 04:55 NE 6 10.00 NULL NULL 51.8 50 94% 29.8 0.0
06 04:35 NE 10 10.00 NULL NULL 51.8 51.8 100% 29.8 0.0
06 04:15 N 8 10.00 NULL NULL 51.8 51.8 100% 29.81 0.0
06 03:55 N 9 10.00 NULL NULL 51.8 51.8 100% 29.8 0.0
06 03:35 N 13 9.00 NULL NULL 53.6 53.6 100% 29.79 0.0
06 03:15 N 23 1.00 Fog/Mist and Breezy NULL 55.4 55.4 100% 29.79 0.0
06 02:55 N 13 10.00 NULL NULL 64.4 64.4 100% 29.75 0.0
06 02:35 NW 3 G 12 1.75 Fog/Mist NULL 66.2 64.4 94% 29.74 0.0
06 02:15 NW 17 1.25 Haze NULL 68 62.6 83% 29.73 0.0
06 01:55 SW 9 G 16 10.00 NULL NULL 69.8 60.8 73% 29.72 0.0
06 01:35 SW 13 G 20 10.00 NULL NULL 69.8 60.8 73% 29.72 0.0
06 01:15 SW 16 G 26 10.00 NULL NULL 69.8 60.8 73% 29.72 0.0
06 00:55 SW 15 G 26 10.00 NULL NULL 69.8 60.8 73% 29.72 0.0
06 00:35 SW 20 G 29 10.00 NULL NULL 69.8 60.8 73% 29.72 0.0
06 00:15 SW 16 G 25 10.00 NULL NULL 69.8 59 69% 29.74 0.0
05 23:55 SW 20 G 28 10.00 NULL NULL 68 59 73% 29.74 0.0
05 23:35 S 16 G 23 10.00 NULL NULL 68 59 73% 29.74 0.0
05 23:15 SW 16 G 26 10.00 NULL NULL 68 59 73% 29.74 0.0
05 22:55 SW 20 10.00 NULL NULL 68 59 73% 29.75 0.0
05 22:35 S 15 G 25 10.00 NULL NULL 66.2 59 78% 29.75 0.0
05 22:15 S 14 G 23 10.00 NULL NULL 66.2 59 78% 29.76 0.0
05 21:55 S 14 G 21 10.00 NULL NULL 66.2 59 78% 29.76 0.0
05 21:35 S 16 G 24 10.00 NULL NULL 66.2 59 78% 29.76 0.0
05 21:15 S 16 10.00 NULL NULL 66.2 59 78% 29.76 0.0
05 20:55 S 13 10.00 NULL NULL 66.2 59 78% 29.76 0.0
05 20:35 S 13 G 18 10.00 NULL NULL 64.4 59 83% 29.75 0.0
05 20:15 S 12 10.00 NULL NULL 64.4 59 83% 29.76 0.0
05 19:55 S 6 10.00 NULL NULL 62.6 59 88% 29.76 0.0
05 19:35 S 6 10.00 NULL NULL 62.6 59 88% 29.76 0.0
05 19:15 SW 5 9.00 NULL NULL 62.6 60.8 94% 29.76 0.0
05 18:55 SW 6 9.00 NULL NULL 62.6 59 88% 29.77 0.0
05 18:35 SW 8 6.00 Fog/Mist NULL 62.6 59 88% 29.78 0.0
05 18:15 SW 8 8.00 NULL NULL 64.4 59 83% 29.78 0.0
05 17:55 S 9 8.00 NULL NULL 64.4 57.2 78% 29.77 0.0
05 17:35 S 7 10.00 NULL NULL 64.4 57.2 78% 29.77 0.0
05 17:15 S 6 G 13 10.00 NULL NULL 64.4 57.2 78% 29.78 0.0
05 16:55 S 7 10.00 NULL NULL 62.6 57.2 83% 29.79 0.0
05 16:35 SW 9 10.00 NULL NULL 64.4 57.2 78% 29.79 0.0
05 16:15 S 14 G 20 2.00 Haze NULL 62.6 55.4 77% 29.79 0.0
05 15:55 S 13 G 29 10.00 NULL NULL 69.8 51.8 53% 29.79 0.0
05 15:35 SW 15 G 32 10.00 NULL NULL 71.6 51.8 50% 29.8 0.0
05 15:15 SW 20 10.00 NULL NULL 73.4 53.6 50% 29.8 0.0
05 14:55 SW 18 G 24 10.00 NULL NULL 73.4 53.6 50% 29.8 0.0
05 14:35 SW 18 G 30 10.00 NULL NULL 73.4 53.6 50% 29.81 0.0
05 14:15 SW 20 G 28 10.00 NULL NULL 73.4 55.4 53% 29.81 0.0
05 13:55 SW 16 G 29 10.00 NULL NULL 71.6 53.6 53% 29.83 0.0
05 13:35 S 18 G 31 10.00 NULL NULL 68 53.6 60% 29.83 0.0
05 13:15 SW 20 G 26 10.00 NULL NULL 68 53.6 60% 29.84 0.0
05 12:55 S 15 G 25 10.00 NULL NULL 68 55.4 64% 29.83 0.0
05 12:35 S 14 10.00 NULL NULL 66.2 53.6 64% 29.83 0.0
05 12:15 S 9 G 20 10.00 NULL NULL 66.2 55.4 68% 29.83 0.0
05 11:55 S 8 G 17 10.00 NULL NULL 62.6 57.2 83% 29.84 0.0
05 11:35 S 8 G 16 8.00 NULL NULL 60.8 55.4 83% 29.86 0.0
05 11:15 S 9 G 16 6.00 Haze NULL 62.6 55.4 77% 29.87 0.0
05 10:55 S 13 G 21 10.00 NULL NULL 64.4 53.6 68% 29.88 0.0
05 10:35 SW 14 G 22 10.00 NULL NULL 64.4 53.6 68% 29.89 0.0
05 10:15 SW 14 10.00 NULL NULL 64.4 51.8 64% 29.89 0.0
05 09:55 SW 10 G 16 10.00 NULL NULL 64.4 51.8 64% 29.89 0.0
05 09:35 SW 12 G 17 10.00 NULL NULL 62.6 51.8 68% 29.89 0.0
05 09:15 S 12 10.00 NULL NULL 62.6 51.8 68% 29.88 0.0
05 08:55 SW 12 10.00 NULL NULL 62.6 51.8 68% 29.88 0.0
05 08:35 SW 13 10.00 NULL NULL 60.8 51.8 72% 29.88 0.0
05 08:15 SW 10 10.00 NULL NULL 60.8 50 68% 29.88 0.0
05 07:55 S 13 10.00 NULL NULL 60.8 50 68% 29.86 0.0
05 07:35 S 12 10.00 NULL NULL 59 50 72% 29.86 0.0
05 07:15 S 12 10.00 NULL NULL 59 50 72% 29.86 0.0
05 06:55 S 10 10.00 NULL NULL 59 50 72% 29.86 0.0
05 06:35 S 10 10.00 NULL NULL 59 50 72% 29.85 0.0
05 06:15 S 8 10.00 NULL NULL 59 48.2 68% 29.84 0.0
05 05:55 S 9 10.00 NULL NULL 57.2 48.2 72% 29.84 0.0
05 05:35 S 7 10.00 NULL NULL 57.2 48.2 72% 29.84 0.0
05 05:15 S 7 10.00 NULL NULL 59 48.2 68% 29.84 0.0
05 04:55 S 8 10.00 NULL NULL 59 48.2 68% 29.83 0.0
05 04:35 S 7 10.00 NULL NULL 57.2 48.2 72% 29.83 0.0
05 04:15 S 7 10.00 NULL NULL 59 48.2 68% 29.83 0.0
05 03:55 S 7 10.00 NULL NULL 57.2 48.2 72% 29.83 0.0
05 03:35 S 7 10.00 NULL NULL 59 48.2 68% 29.82 0.0
05 03:15 S 9 10.00 NULL NULL 59 48.2 68% 29.82 0.0
05 02:55 S 10 10.00 NULL NULL 59 48.2 68% 29.82 0.0
05 02:35 S 10 10.00 NULL NULL 59 48.2 68% 29.82 0.0
05 02:15 S 10 10.00 NULL NULL 59 48.2 68% 29.83 0.0
05 01:55 S 9 10.00 NULL NULL 60.8 48.2 63% 29.83 0.0
05 01:35 S 10 10.00 NULL NULL 60.8 48.2 63% 29.84 0.0
05 01:15 S 10 10.00 NULL NULL 60.8 48.2 63% 29.85 0.0
05 00:55 S 9 10.00 NULL NULL 60.8 48.2 63% 29.85 0.0
05 00:35 S 9 G 15 10.00 NULL NULL 62.6 48.2 60% 29.86 0.0
05 00:15 S 9 10.00 NULL NULL 62.6 48.2 60% 29.86 0.0
04 23:55 S 9 10.00 NULL NULL 62.6 48.2 60% 29.85 0.0
04 23:35 SW 8 10.00 NULL NULL 62.6 48.2 60% 29.85 0.0
04 23:15 S 9 10.00 NULL NULL 64.4 48.2 56% 29.84 0.0
04 22:55 SW 9 10.00 NULL NULL 64.4 48.2 56% 29.85 0.0
04 22:35 SW 10 10.00 NULL NULL 64.4 46.4 52% 29.85 0.0
04 22:15 SW 10 10.00 NULL NULL 66.2 46.4 49% 29.84 0.0
04 21:55 SW 12 10.00 NULL NULL 66.2 46.4 49% 29.83 0.0
04 21:35 S 12 10.00 NULL NULL 66.2 46.4 49% 29.83 0.0
04 21:15 S 10 10.00 NULL NULL 68 46.4 46% 29.83 0.0
04 20:55 S 10 10.00 NULL NULL 68 46.4 46% 29.82 0.0
04 20:35 S 9 10.00 NULL NULL 68 46.4 46% 29.83 0.0
04 20:15 S 9 10.00 NULL NULL 68 46.4 46% 29.82 0.0
04 19:55 S 9 10.00 NULL NULL 68 46.4 46% 29.83 0.0
04 19:35 S 8 10.00 NULL NULL 71.6 46.4 41% 29.82 0.0
04 19:15 SW 9 G 15 10.00 NULL NULL 73.4 46.4 38% 29.83 0.0
04 18:55 SW 9 G 16 10.00 NULL NULL 75.2 46.4 36% 77 29.83 0.0
04 18:35 SW 10 G 16 10.00 NULL NULL 75.2 46.4 36% 77 29.83 0.0
04 18:15 SW 10 G 17 10.00 NULL NULL 77 46.4 34% 78 29.83 0.0
04 17:55 SW 8 G 16 10.00 NULL NULL 75.2 48.2 39% 77 29.83 0.0
04 17:35 SW 16 G 22 10.00 NULL NULL 78.8 48.2 34% 79 29.83 0.0
04 17:15 SW 14 G 24 10.00 NULL NULL 78.8 48.2 34% 79 29.83 0.0
04 16:55 SW 12 G 26 10.00 NULL NULL 77 46.4 34% 78 29.83 0.0
04 16:35 SW 16 G 25 10.00 NULL NULL 78.8 48.2 34% 79 29.83 0.0
04 16:15 SW 14 G 26 10.00 NULL NULL 78.8 46.4 32% 79 29.83 0.0
04 15:55 SW 15 G 28 10.00 NULL NULL 78.8 46.4 32% 79 29.83 0.0
04 15:35 SW 17 10.00 NULL NULL 78.8 48.2 34% 79 29.84 0.0
04 15:15 SW 17 G 23 10.00 NULL NULL 78.8 48.2 34% 79 29.84 0.0
04 14:55 SW 16 G 30 10.00 NULL NULL 78.8 48.2 34% 79 29.86 0.0
04 14:35 SW 16 G 24 10.00 NULL NULL 78.8 50 37% 79 29.86 0.0
04 14:15 SW 14 G 22 10.00 NULL NULL 78.8 50 37% 79 29.87 0.0
04 13:55 SW 16 G 25 10.00 NULL NULL 77 48.2 36% 78 29.88 0.0
04 13:35 SW 14 G 22 10.00 NULL NULL 77 50 39% 78 29.88 0.0
04 13:15 SW 18 10.00 NULL NULL 77 50 39% 78 29.89 0.0
04 12:55 SW 13 G 18 10.00 NULL NULL 77 50 39% 78 29.89 0.0
04 12:35 SW 13 G 20 10.00 NULL NULL 77 51.8 42% 78 29.9 0.0
04 12:15 SW 13 G 20 10.00 NULL NULL 75.2 50 41% 78 29.9 0.0
04 11:55 SW 14 10.00 NULL NULL 75.2 50 41% 78 29.91 0.0
04 11:35 SW 16 10.00 NULL NULL 75.2 50 41% 78 29.92 0.0
04 11:15 W 12 G 17 10.00 NULL NULL 73.4 50 44% 29.93 0.0
04 10:55 SW 15 G 22 10.00 NULL NULL 73.4 50 44% 29.93 0.0
04 10:35 SW 14 G 21 10.00 NULL NULL 73.4 50 44% 29.94 0.0
04 10:15 SW 13 10.00 NULL NULL 71.6 50 47% 29.93 0.0
04 09:55 SW 13 10.00 NULL NULL 69.8 50 50% 29.94 0.0
04 09:35 SW 13 10.00 NULL NULL 68 50 53% 29.94 0.0
04 09:15 SW 12 G 18 10.00 NULL NULL 66.2 50 56% 29.94 0.0
04 08:55 SW 13 10.00 NULL NULL 62.6 48.2 60% 29.94 0.0
04 08:35 SW 15 10.00 NULL NULL 60.8 48.2 63% 29.94 0.0
04 08:15 SW 10 G 18 10.00 NULL NULL 59 46.4 63% 29.94 0.0
04 07:55 SW 12 10.00 NULL NULL 57.2 46.4 67% 29.94 0.0
04 07:35 SW 9 10.00 NULL NULL 57.2 44.6 63% 29.94 0.0
04 07:15 SW 8 10.00 NULL NULL 55.4 44.6 67% 29.93 0.0
04 06:55 SW 9 10.00 NULL NULL 55.4 42.8 63% 29.94 0.0
04 06:35 SW 9 10.00 NULL NULL 53.6 42.8 67% 29.93 0.0
04 06:15 SW 9 10.00 NULL NULL 53.6 42.8 67% 29.92 0.0
04 05:55 SW 12 10.00 NULL NULL 53.6 42.8 67% 29.92 0.0
04 05:35 SW 13 10.00 NULL NULL 55.4 42.8 63% 29.92 0.0
04 05:15 SW 12 10.00 NULL NULL 53.6 42.8 67% 29.92 0.0
04 04:55 SW 10 10.00 NULL NULL 53.6 41 63% 29.92 0.0
04 04:35 SW 9 10.00 NULL NULL 51.8 41 67% 29.93 0.0
04 04:15 SW 8 10.00 NULL NULL 53.6 41 63% 29.93 0.0
04 03:55 SW 10 10.00 NULL NULL 53.6 41 63% 29.93 0.0
04 03:35 SW 10 10.00 NULL NULL 53.6 41 63% 29.93 0.0
04 03:15 SW 10 10.00 NULL NULL 53.6 41 63% 29.93 0.0
04 02:55 SW 10 10.00 NULL NULL 53.6 41 63% 29.93 0.0
04 02:35 SW 13 10.00 NULL NULL 53.6 41 63% 29.94 0.0
04 02:15 SW 12 10.00 NULL NULL 53.6 41 63% 29.94 0.0
04 01:55 SW 13 10.00 NULL NULL 53.6 41 63% 29.94 0.0
04 01:35 SW 9 10.00 NULL NULL 53.6 41 63% 29.95 0.0
04 01:15 SW 9 10.00 NULL NULL 53.6 41 63% 29.96 0.0
04 00:55 SW 9 G 16 10.00 NULL NULL 55.4 41 59% 29.96 0.0
04 00:35 SW 10 G 16 10.00 NULL NULL 55.4 41 59% 29.96 0.0
04 00:15 SW 15 G 23 10.00 NULL NULL 55.4 39.2 55% 29.96 0.0
03 23:55 SW 15 10.00 NULL NULL 57.2 39.2 51% 29.96 0.0
03 23:35 SW 14 G 20 10.00 NULL NULL 55.4 39.2 55% 29.96 0.0
03 23:15 SW 13 10.00 NULL NULL 57.2 39.2 51% 29.97 0.0
03 22:55 SW 10 10.00 NULL NULL 55.4 39.2 55% 29.98 0.0
03 22:15 SW 8 10.00 NULL NULL 55.4 39.2 55% 29.99 0.0
03 21:55 SW 8 10.00 NULL NULL 55.4 39.2 55% 29.99 0.0
03 21:35 SW 9 10.00 NULL NULL 57.2 39.2 51% 29.98 0.0
03 21:15 SW 9 G 15 10.00 NULL NULL 59 39.2 48% 29.98 0.0
03 20:55 SW 9 10.00 NULL NULL 57.2 39.2 51% 29.97 0.0
03 20:35 SW 9 10.00 NULL NULL 57.2 39.2 51% 29.97 0.0
03 20:15 S 7 10.00 NULL NULL 57.2 39.2 51% 29.97 0.0
03 19:55 S 7 10.00 NULL NULL 59 39.2 48% 29.97 0.0
03 19:35 SW 5 10.00 NULL NULL 60.8 37.4 42% 29.98 0.0
03 19:15 SW 7 10.00 NULL NULL 62.6 37.4 39% 29.98 0.0
03 18:55 SW 8 10.00 NULL NULL 64.4 37.4 37% 29.98 0.0
03 18:35 SW 12 10.00 NULL NULL 66.2 35.6 32% 29.99 0.0
03 18:15 W 8 G 15 10.00 NULL NULL 66.2 35.6 32% 30 0.0
03 17:55 SW 13 10.00 NULL NULL 66.2 37.4 35% 30 0.0
03 17:35 SW 8 G 14 10.00 NULL NULL 66.2 37.4 35% 30.01 0.0
03 17:15 SW 12 G 20 10.00 NULL NULL 66.2 35.6 32% 30.01 0.0
03 16:55 W 14 10.00 NULL NULL 66.2 35.6 32% 30.02 0.0
03 16:35 SW 9 G 21 10.00 NULL NULL 66.2 35.6 32% 30.03 0.0
03 16:15 SW 9 G 21 10.00 NULL NULL 66.2 35.6 32% 30.04 0.0
03 15:55 W 10 G 22 10.00 NULL NULL 66.2 35.6 32% 30.05 0.0
03 15:35 W 14 10.00 NULL NULL 68 35.6 30% 30.06 0.0
03 15:15 W 7 G 17 10.00 NULL NULL 66.2 33.8 30% 30.07 0.0
03 14:55 Vrbl 8 G 15 10.00 NULL NULL 66.2 33.8 30% 30.09 0.0
03 14:35 NW 8 G 15 10.00 NULL NULL 64.4 33.8 32% 30.09 0.0
03 14:15 W 12 10.00 NULL NULL 64.4 32 30% 30.1 0.0
03 13:55 W 8 G 20 10.00 NULL NULL 64.4 33.8 32% 30.11 0.0
03 13:35 W 9 10.00 NULL NULL 64.4 33.8 32% 30.11 0.0
03 13:15 SW 10 G 20 10.00 NULL NULL 64.4 33.8 32% 30.12 0.0
03 12:55 S 9 G 16 10.00 NULL NULL 62.6 33.8 34% 30.13 0.0
03 12:35 Vrbl 6 G 13 10.00 NULL NULL 62.6 33.8 34% 30.14 0.0
03 12:15 SW 8 10.00 NULL NULL 62.6 32 32% 30.14 0.0
03 11:55 W 8 10.00 NULL NULL 60.8 32 34% 30.15 0.0
03 11:35 Vrbl 3 10.00 NULL NULL 59 32 36% 30.16 0.0
03 11:15 SW 6 10.00 NULL NULL 59 33.8 39% 30.16 0.0
03 10:55 Calm 10.00 NULL NULL 57.2 32 39% 30.17 0.0
03 10:35 SE 3 G 12 10.00 NULL NULL 57.2 32 39% 30.17 0.0
03 10:15 S 8 10.00 NULL NULL 57.2 33.8 41% 30.17 0.0
03 09:55 SW 9 10.00 NULL NULL 57.2 33.8 41% 30.17 0.0
03 09:35 Vrbl 3 10.00 NULL NULL 57.2 33.8 41% 30.17 0.0
03 09:15 Vrbl 5 10.00 NULL NULL 55.4 33.8 44% 30.17 0.0
03 08:55 Vrbl 3 10.00 NULL NULL 53.6 39.2 58% 30.17 0.0
03 08:35 S 6 10.00 NULL NULL 51.8 41 67% 30.17 0.0
03 08:15 Calm 10.00 NULL NULL 50 42.8 76% 30.17 0.0
03 07:55 SE 3 10.00 NULL NULL 48.2 44.6 87% 30.17 0.0
Date Time (cdt) Wind (mph) Vis. (mi.) Weather Sky Cond. Air Dwpt Max. Min. Relative Humidity Wind Chill (°F) Heat Index (°F) altimeter (in) sea level (mb) 1 hr 3 hr 6 hr
6 hour
Temperature (ºF) Pressure Precipitation (in)